Terminal Aerodrome Forecast
Issued by NWS

Current Version | Previous Version | Text Only | Print | Product List | Glossary On
Versions: 1 2 3 4 5 6 7 8 9 10 11 12 13 14 15 16 17 18 19 20 21 22 23 24 25 26 27 28 29 30 31 32 33 34 35
000
FTUS44 KHGX 032336
TAFCXO
TAF
KCXO 032336Z 0400/0424 VRB03KT P6SM FEW020
     FM040800 00000KT 4SM BR SCT015
      TEMPO 0409/0413 2SM BR BKN006
     FM041400 17005KT P6SM SCT025
     FM041700 16007KT P6SM VCSH SCT035 SCT250=

USA.gov is the U.S. government's official web portal to all federal, state and local government web resources and services.